Terminal Aerodrome Forecast
Issued by NWS Raleigh/Durham, NC

Home | Current Version | Previous Version | Text Only | Print | Product List | Glossary On
Versions: 1 2 3 4 5 6 7 8 9 10 11 12 13 14 15 16 17 18 19 20 21 22 23 24 25 26 27 28 29
000
FTUS42 KRAH 261120
TAFFAY
TAF
KFAY 261120Z 2612/2712 21005KT 6SM BR OVC004
     FM261300 21007KT P6SM OVC019
     FM261500 20010KT P6SM SCT250
     FM270900 20004KT P6SM OVC035=

USA.gov is the U.S. government's official web portal to all federal, state and local government web resources and services.